Latest Coastal Weather Observations for Broome Port

IDW60701

Issued at 6:13 am WST Saturday 3 December 2016 (issued every 10 minutes, with the page automatically refreshed every 10 minutes)

About coastal observations | Map of coastal stations | Coastal observations for WA | Marine services | Other Formats
Station Details ID: 003102 Name: BROOME NTC AWS Lat: -18.00 Lon: 122.22 Height: 0.0 m
Data from the previous 72 hours. | See also: Recent months for locations in Western Australia
Date/Time
WST
Temp
°C
Wind Pressure Rain since
9am
mm
Weather Cloud Vis
km
Sea
Height
m
Swell
Dir  Spd
kts
Gust
kts
hPa Trend Height
m
Period
s
Dir
03/06:00am 29.1 W 9 12 1007.1 - - - - - - - - -
03/05:30am 29.1 WNW 8 11 1006.9 - - - - - - - - -
03/05:00am 29.0 WNW 8 9 1006.8 - - - - - - - - -
03/04:30am 29.0 WNW 8 10 1006.4 - - - - - - - - -
03/04:00am 29.0 WNW 11 12 1006.3 - - - - - - - - -
03/03:30am 29.1 WNW 10 12 1006.3 - - - - - - - - -
03/03:00am 29.1 WNW 11 13 1005.9 - - - - - - - - -
03/02:30am 29.1 WNW 13 16 1005.8 - - - - - - - - -
03/02:00am 29.2 NW 15 18 1005.6 - - - - - - - - -
03/01:30am 29.3 NW 16 19 1005.7 - - - - - - - - -
03/01:00am 29.1 NW 14 18 1005.9 - - - - - - - - -
03/12:30am 29.2 NW 14 16 1006.1 - - - - - - - - -
03/12:00am 29.2 NW 10 14 1006.3 - - - - - - - - -
 
Date/Time
WST
Temp
°C
Wind Pressure Rain since
9am
mm
Weather Cloud Vis
km
Sea
Height
m
Swell
Dir  Spd
kts
Gust
kts
hPa Trend Height
m
Period
s
Dir
02/11:30pm 29.4 NNW 8 11 1006.7 - - - - - - - - -
02/11:00pm 29.4 NNW 10 12 1007.0 - - - - - - - - -
02/10:30pm 29.4 NNW 8 11 1006.9 - - - - - - - - -
02/10:00pm 29.5 NNW 8 10 1006.8 - - - - - - - - -
02/09:30pm 29.4 NNW 9 13 1006.5 - - - - - - - - -
02/09:00pm 29.6 NW 11 16 1006.4 - - - - - - - - -
02/08:30pm 29.7 NNW 11 15 1006.5 - - - - - - - - -
02/08:00pm 29.8 WNW 15 19 1005.6 - - - - - - - - -
02/07:30pm 29.8 WNW 17 21 1005.0 - - - - - - - - -
02/07:00pm 29.7 WNW 16 20 1004.8 - - - - - - - - -
02/06:30pm 29.8 NW 16 19 1004.8 - - - - - - - - -
02/06:00pm 29.9 NW 16 20 1004.8 - - - - - - - - -
02/05:30pm 30.1 NW 18 21 1004.3 - - - - - - - - -
02/05:00pm 30.2 NW 15 18 1004.8 - - - - - - - - -
02/04:30pm 30.3 NNW 14 17 1005.0 - - - - - - - - -
02/04:00pm 30.5 NW 13 17 1005.3 - - - - - - - - -
02/03:30pm 30.5 NW 14 18 1005.4 - - - - - - - - -
02/03:00pm 30.5 NW 14 17 1005.6 - - - - - - - - -
02/02:30pm 30.3 NW 14 20 1005.4 - - - - - - - - -
02/02:00pm 30.3 NW 14 18 1005.7 - - - - - - - - -
02/01:30pm 30.0 NW 14 18 1006.3 - - - - - - - - -
02/01:00pm 30.1 NW 14 18 1006.5 - - - - - - - - -
02/12:30pm 30.2 NW 13 17 1006.7 - - - - - - - - -
02/12:00pm 30.1 NW 14 17 1006.6 - - - - - - - - -
02/11:30am 30.0 NW 15 17 1007.1 - - - - - - - - -
02/11:00am 30.2 NW 11 15 1007.4 - - - - - - - - -
02/10:30am 29.9 NW 11 15 1007.3 - - - - - - - - -
02/10:00am 29.9 NW 12 16 1007.7 - - - - - - - - -
02/09:30am 29.9 NW 14 18 1007.6 - - - - - - - - -
02/09:00am 29.8 NW 14 17 1007.6 - - - - - - - - -
02/08:30am 29.6 NW 13 16 1007.5 - - - - - - - - -
02/08:00am 29.5 NW 12 15 1007.2 - - - - - - - - -
02/07:30am 29.3 NW 16 19 1006.7 - - - - - - - - -
02/07:00am 29.3 NW 13 18 1006.7 - - - - - - - - -
02/06:30am 29.2 NW 16 22 1006.4 - - - - - - - - -
02/06:00am 29.1 NW 16 20 - - - - - - - - - -
 
Date/Time
WST
Temp
°C
Wind Pressure Rain since
9am
mm
Weather Cloud Vis
km
Sea
Height
m
Swell
Dir  Spd
kts
Gust
kts
hPa Trend Height
m
Period
s
Dir
30/11:00pm 30.0 WNW 12 15 1007.0 - - - - - - - - -
30/10:30pm 30.1 WNW 11 14 1007.1 - - - - - - - - -
30/10:00pm 30.0 WNW 12 15 1007.1 - - - - - - - - -
30/09:30pm 30.0 WNW 11 12 1007.2 - - - - - - - - -
30/09:00pm 30.2 NW 11 14 1007.0 - - - - - - - - -
30/08:30pm 30.2 WNW 11 13 1006.8 - - - - - - - - -
30/08:00pm 30.3 NW 11 13 1006.5 - - - - - - - - -
30/07:30pm 30.1 NW 11 14 1006.5 - - - - - - - - -
30/07:00pm 30.2 NW 12 14 1006.1 - - - - - - - - -
30/06:30pm 30.6 WNW 11 14 1005.8 - - - - - - - - -
30/06:00pm 30.6 WNW 11 14 1005.7 - - - - - - - - -
30/05:30pm 30.7 WNW 12 16 1005.6 - - - - - - - - -
30/05:00pm 31.0 WNW 14 17 1005.3 - - - - - - - - -
30/04:30pm 31.2 WNW 14 17 1005.2 - - - - - - - - -
30/04:00pm 31.3 WNW 14 17 1005.1 - - - - - - - - -
30/03:30pm 31.4 WNW 15 18 1005.1 - - - - - - - - -
30/03:00pm 31.1 WNW 16 18 1005.4 - - - - - - - - -
30/02:30pm 31.2 W 14 17 1005.6 - - - - - - - - -
30/02:00pm 31.3 W 13 18 1005.9 - - - - - - - - -
30/01:30pm 31.0 WNW 13 16 1006.2 - - - - - - - - -
30/01:00pm 30.7 WNW 13 16 1006.6 - - - - - - - - -
30/12:30pm 30.6 WNW 11 14 1007.0 - - - - - - - - -
30/12:00pm 30.7 WNW 9 12 1007.2 - - - - - - - - -
30/11:30am 30.8 W 8 12 1007.2 - - - - - - - - -
30/11:00am 30.9 WNW 8 11 1007.7 - - - - - - - - -
30/10:30am 30.9 W 6 8 1008.0 - - - - - - - - -
30/10:00am 30.6 W 8 11 1008.3 - - - - - - - - -
30/09:30am 30.5 W 8 11 1008.4 - - - - - - - - -
30/09:00am 30.8 WSW 9 12 1008.6 - - - - - - - - -
30/08:30am 30.8 SW 6 8 1008.6 - - - - - - - - -
30/08:00am 30.5 SW 7 9 1008.7 - - - - - - - - -
30/07:30am 30.6 SW 8 10 1008.7 - - - - - - - - -
30/07:00am 30.5 WSW 7 8 1008.7 - - - - - - - - -
30/06:30am 30.3 SW 9 10 1008.4 - - - - - - - - -

Other Formats:

Comma delimited format used in spreadsheet applications
http://www.bom.gov.au/fwo/IDW60701/IDW60701.95202.axf

JavaScript Object Notation format (JSON) in row-major order
http://www.bom.gov.au/fwo/IDW60701/IDW60701.95202.json